Time;durP1;ratioP1;P1;durP2;ratioP2;P2;SDS_P1;SDS_P2;PMS_P1;PMS_P2;Temp;Humidity;BMP_temperature;BMP_pressure;BME280_temperature;BME280_humidity;BME280_pressure;Samples;Min_cycle;Max_cycle;Signal;HPM_P1;HPM_P2
2021/08/05 00:01:25;;;;;;;1.63;1.40;;;17.20;99.90;;;;;;5032342;28;20024;-71
2021/08/05 00:03:51;;;;;;;3.92;1.80;;;17.10;99.90;;;;;;5031412;28;20021;-70
2021/08/05 00:06:16;;;;;;;2.40;1.52;;;17.00;99.90;;;;;;5028336;28;20022;-71
2021/08/05 00:08:42;;;;;;;2.40;1.52;;;17.00;99.90;;;;;;5032172;28;20108;-71
2021/08/05 00:11:07;;;;;;;2.83;2.42;;;17.00;99.90;;;;;;5031959;28;20545;-70
2021/08/05 00:13:33;;;;;;;2.85;2.08;;;16.90;99.90;;;;;;5031754;28;20033;-71
2021/08/05 00:15:58;;;;;;;5.40;2.10;;;16.90;99.90;;;;;;5032170;28;20053;-70
2021/08/05 00:18:24;;;;;;;3.00;2.33;;;16.90;99.90;;;;;;5033554;28;20025;-69
2021/08/05 00:20:50;;;;;;;2.92;2.10;;;16.90;99.90;;;;;;5040752;28;20022;-70
2021/08/05 00:23:16;;;;;;;3.38;2.10;;;16.90;99.90;;;;;;5037913;28;20097;-70
2021/08/05 00:25:41;;;;;;;4.50;2.22;;;16.90;99.90;;;;;;5031596;28;20026;-69
2021/08/05 00:28:07;;;;;;;3.08;2.60;;;16.90;99.90;;;;;;5031546;28;20414;-70
2021/08/05 00:30:32;;;;;;;5.18;2.70;;;16.90;99.90;;;;;;5033234;28;20139;-69
2021/08/05 00:32:58;;;;;;;5.65;2.92;;;16.90;99.90;;;;;;5035513;28;20030;-70
2021/08/05 00:35:24;;;;;;;2.70;2.33;;;16.90;99.90;;;;;;5035564;28;20040;-70
2021/08/05 00:37:49;;;;;;;2.40;2.20;;;16.90;99.90;;;;;;5036097;28;20100;-70
2021/08/05 00:40:15;;;;;;;2.50;2.30;;;16.90;99.90;;;;;;5035809;28;20065;-69
2021/08/05 00:42:41;;;;;;;5.70;2.83;;;16.90;99.90;;;;;;5035344;28;20026;-69
2021/08/05 00:45:07;;;;;;;2.60;2.15;;;16.90;99.90;;;;;;5035788;28;20030;-69
2021/08/05 00:47:33;;;;;;;4.82;2.80;;;16.90;99.90;;;;;;5017955;28;20076;-70
2021/08/05 00:49:58;;;;;;;2.97;2.08;;;16.80;99.90;;;;;;5036016;28;20477;-68
2021/08/05 00:52:25;;;;;;;2.40;2.03;;;16.80;99.90;;;;;;5034990;28;20108;-70
2021/08/05 00:54:51;;;;;;;2.53;2.08;;;16.80;99.90;;;;;;5035798;28;20033;-69
2021/08/05 00:57:16;;;;;;;3.95;2.40;;;16.80;99.90;;;;;;5036491;28;20022;-69
2021/08/05 00:59:42;;;;;;;3.45;2.47;;;16.80;99.90;;;;;;5036055;28;20034;-70
2021/08/05 01:02:31;;;;;;;2.42;2.10;;;16.80;99.90;;;;;;5035924;28;20385;-69
2021/08/05 01:04:58;;;;;;;2.63;1.65;;;16.80;99.90;;;;;;5035556;28;20022;-69
2021/08/05 01:07:32;;;;;;;4.13;2.25;;;16.90;99.90;;;;;;5036351;28;20439;-69
2021/08/05 01:10:00;;;;;;;2.22;1.60;;;16.80;99.90;;;;;;5035326;28;20116;-69
2021/08/05 01:12:39;;;;;;;2.20;1.83;;;16.80;99.90;;;;;;5035221;28;20028;-70
2021/08/05 01:15:16;;;;;;;4.30;2.95;;;16.80;99.90;;;;;;5036391;28;20093;-69
2021/08/05 01:17:51;;;;;;;2.72;2.42;;;16.80;99.90;;;;;;5036509;28;20021;-70
2021/08/05 01:20:19;;;;;;;6.78;3.55;;;16.80;99.90;;;;;;5036376;28;20108;-71
2021/08/05 01:23:15;;;;;;;2.83;2.58;;;16.70;99.90;;;;;;5017452;28;20026;-69
2021/08/05 01:25:43;;;;;;;7.80;2.15;;;16.70;99.90;;;;;;5034595;28;20427;-70
2021/08/05 01:28:11;;;;;;;2.40;1.92;;;16.70;99.90;;;;;;5034906;28;20018;-70
2021/08/05 01:30:39;;;;;;;2.92;2.13;;;16.70;99.90;;;;;;5033186;28;20029;-70
2021/08/05 01:33:05;;;;;;;2.28;2.08;;;16.80;99.90;;;;;;5024113;28;20116;-70
2021/08/05 01:35:31;;;;;;;1.98;1.73;;;16.80;99.90;;;;;;5034483;28;20017;-69
2021/08/05 01:37:59;;;;;;;2.55;2.30;;;16.80;99.90;;;;;;5034551;28;20554;-69
2021/08/05 01:40:25;;;;;;;2.60;2.05;;;16.80;99.90;;;;;;5034466;28;20021;-70
2021/08/05 01:42:51;;;;;;;3.05;2.10;;;16.80;99.90;;;;;;5033950;28;20025;-70
2021/08/05 01:45:18;;;;;;;3.05;1.90;;;16.70;99.90;;;;;;5034126;28;20017;-69
2021/08/05 01:47:44;;;;;;;5.75;2.25;;;16.60;99.90;;;;;;5035180;28;20098;-70
2021/08/05 01:50:13;;;;;;;6.18;2.50;;;16.60;99.90;;;;;;5018669;28;20080;-70
2021/08/05 01:52:40;;;;;;;4.47;1.95;;;16.50;99.90;;;;;;5036194;28;20049;-70
2021/08/05 01:55:07;;;;;;;2.45;2.10;;;16.50;99.90;;;;;;5035300;28;20057;-69
2021/08/05 01:57:33;;;;;;;2.55;1.95;;;16.50;99.90;;;;;;5034966;28;20032;-70
2021/08/05 01:59:58;;;;;;;4.22;2.00;;;16.50;99.90;;;;;;5035511;28;20100;-70
2021/08/05 02:02:24;;;;;;;4.70;2.00;;;16.50;99.90;;;;;;5034430;28;20025;-70
2021/08/05 02:05:01;;;;;;;3.60;2.00;;;16.50;99.90;;;;;;5034089;28;20480;-70
2021/08/05 02:07:31;;;;;;;2.53;2.30;;;16.50;99.90;;;;;;5033987;28;20080;-69
2021/08/05 02:10:12;;;;;;;2.35;2.15;;;16.50;99.90;;;;;;5033866;28;20070;-69
2021/08/05 02:12:46;;;;;;;2.38;2.05;;;16.60;99.90;;;;;;5033970;28;20021;-69
2021/08/05 02:15:12;;;;;;;2.20;2.00;;;16.70;99.90;;;;;;5033633;28;20029;-68
2021/08/05 02:17:41;;;;;;;3.70;2.13;;;16.70;99.90;;;;;;5034079;28;20390;-69
2021/08/05 02:20:10;;;;;;;2.90;2.00;;;16.80;99.90;;;;;;5033537;28;20131;-69
2021/08/05 02:22:39;;;;;;;3.10;1.98;;;16.80;99.90;;;;;;5033676;28;20365;-70
2021/08/05 02:25:06;;;;;;;2.47;2.00;;;16.80;99.90;;;;;;5033690;28;20028;-69
2021/08/05 02:27:33;;;;;;;2.17;1.98;;;16.80;99.90;;;;;;5034050;28;20493;-69
2021/08/05 02:29:59;;;;;;;3.05;2.38;;;16.70;99.90;;;;;;5033314;28;20508;-70
2021/08/05 02:32:26;;;;;;;2.25;1.90;;;16.70;99.90;;;;;;5033458;28;20063;-70
2021/08/05 02:34:53;;;;;;;2.45;2.25;;;16.70;99.90;;;;;;5033327;28;20029;-70
2021/08/05 02:37:19;;;;;;;2.60;2.40;;;16.70;99.90;;;;;;5032825;28;20033;-70
2021/08/05 02:39:44;;;;;;;2.78;2.47;;;16.60;99.90;;;;;;5033372;28;20029;-69
2021/08/05 02:42:10;;;;;;;2.75;1.80;;;16.50;99.90;;;;;;5033375;28;20024;-69
2021/08/05 02:44:37;;;;;;;2.03;1.83;;;16.40;99.90;;;;;;5015790;28;20481;-70
2021/08/05 02:47:04;;;;;;;3.95;2.15;;;16.30;99.90;;;;;;5037873;28;20033;-69
2021/08/05 02:49:31;;;;;;;3.78;2.00;;;16.30;99.90;;;;;;5033171;28;20431;-69
2021/08/05 02:51:57;;;;;;;2.95;2.20;;;16.20;99.90;;;;;;5032726;28;20064;-69
2021/08/05 02:54:23;;;;;;;2.63;2.15;;;16.10;99.90;;;;;;5032265;28;20033;-71
2021/08/05 02:56:49;;;;;;;4.63;2.17;;;16.10;99.90;;;;;;5032930;28;20024;-71
2021/08/05 02:59:15;;;;;;;5.05;2.38;;;16.00;99.90;;;;;;5033303;28;20480;-71
2021/08/05 03:01:42;;;;;;;3.03;2.53;;;16.00;99.90;;;;;;5032731;28;20055;-72
2021/08/05 03:04:11;;;;;;;5.10;2.17;;;15.90;99.90;;;;;;5032449;28;20026;-71
2021/08/05 03:06:39;;;;;;;4.50;2.40;;;15.80;99.90;;;;;;5014755;28;20360;-72
2021/08/05 03:09:05;;;;;;;3.70;2.60;;;15.80;99.90;;;;;;5032813;28;20029;-72
2021/08/05 03:11:31;;;;;;;3.42;2.10;;;15.70;99.90;;;;;;5032864;28;20412;-73
2021/08/05 03:13:56;;;;;;;3.05;2.75;;;15.70;99.90;;;;;;5032758;28;20055;-72
2021/08/05 03:16:22;;;;;;;2.97;2.35;;;15.70;99.90;;;;;;5032736;28;20026;-73
2021/08/05 03:18:48;;;;;;;6.18;2.38;;;15.60;99.90;;;;;;5032479;28;20021;-73
2021/08/05 03:21:13;;;;;;;6.03;2.80;;;15.50;99.90;;;;;;5040601;28;20049;-71
2021/08/05 03:23:39;;;;;;;2.70;2.30;;;15.50;99.90;;;;;;5045732;28;20021;-71
2021/08/05 03:26:05;;;;;;;7.45;2.78;;;15.50;99.90;;;;;;5035300;28;20112;-71
2021/08/05 03:28:30;;;;;;;2.85;2.28;;;15.50;99.90;;;;;;5013720;28;20029;-71
2021/08/05 03:30:56;;;;;;;2.40;2.20;;;15.50;99.90;;;;;;5031312;28;20030;-71
2021/08/05 03:33:22;;;;;;;2.72;2.40;;;15.50;99.90;;;;;;5031919;28;20040;-72
2021/08/05 03:35:48;;;;;;;5.47;2.38;;;15.50;99.90;;;;;;5032175;28;20385;-72
2021/08/05 03:38:14;;;;;;;3.67;2.13;;;15.50;99.90;;;;;;5032080;28;20024;-72
2021/08/05 03:40:39;;;;;;;3.25;2.47;;;15.50;99.90;;;;;;5032500;28;20041;-72
2021/08/05 03:43:05;;;;;;;2.88;2.58;;;15.50;99.90;;;;;;5014131;28;20039;-72
2021/08/05 03:45:31;;;;;;;2.53;2.20;;;15.50;99.90;;;;;;5032112;28;20037;-72
2021/08/05 03:47:56;;;;;;;4.53;2.60;;;15.50;99.90;;;;;;5031956;28;20014;-72
2021/08/05 03:50:22;;;;;;;3.58;2.50;;;15.40;99.90;;;;;;5031921;28;20032;-72
2021/08/05 03:52:47;;;;;;;4.25;2.33;;;15.40;99.90;;;;;;5031913;28;20040;-71
2021/08/05 03:55:14;;;;;;;2.63;1.95;;;15.40;99.90;;;;;;5031698;28;20480;-71
2021/08/05 03:57:40;;;;;;;5.15;2.75;;;15.40;99.90;;;;;;5032191;28;20109;-72
2021/08/05 04:00:09;;;;;;;8.60;2.60;;;15.30;99.90;;;;;;5031832;28;20060;-71
2021/08/05 04:02:34;;;;;;;4.07;2.83;;;15.30;99.90;;;;;;5032140;28;20482;-72
2021/08/05 04:05:00;;;;;;;3.70;2.75;;;15.30;99.90;;;;;;5033499;28;20155;-72
2021/08/05 04:07:25;;;;;;;5.15;2.92;;;15.20;99.90;;;;;;5032888;28;20109;-72
2021/08/05 04:09:51;;;;;;;8.38;3.03;;;15.20;99.90;;;;;;5031816;28;20083;-73
2021/08/05 04:12:17;;;;;;;4.10;3.13;;;15.20;99.90;;;;;;5031708;28;20017;-72
2021/08/05 04:14:42;;;;;;;3.58;2.88;;;15.20;99.90;;;;;;5031634;28;20033;-71
2021/08/05 04:17:08;;;;;;;8.35;3.15;;;15.30;99.90;;;;;;5031479;28;20030;-71
2021/08/05 04:19:33;;;;;;;3.45;2.75;;;15.30;99.90;;;;;;5031615;28;20109;-72
2021/08/05 04:22:00;;;;;;;3.65;2.50;;;15.30;99.90;;;;;;5031514;28;20064;-73
2021/08/05 04:24:25;;;;;;;4.63;3.08;;;15.30;99.90;;;;;;5031767;28;20025;-71
2021/08/05 04:26:51;;;;;;;3.85;2.83;;;15.40;99.90;;;;;;5031558;28;20500;-72
2021/08/05 04:29:16;;;;;;;4.57;3.00;;;15.50;99.90;;;;;;5029664;28;20032;-72
2021/08/05 04:31:42;;;;;;;5.35;2.63;;;15.60;99.90;;;;;;5031131;28;20029;-72
2021/08/05 04:34:08;;;;;;;5.57;3.92;;;15.70;99.90;;;;;;5031381;28;20029;-73
2021/08/05 04:36:33;;;;;;;7.15;3.35;;;15.80;99.90;;;;;;5031400;28;20021;-73
2021/08/05 04:38:59;;;;;;;4.45;3.30;;;16.00;99.90;;;;;;5031441;28;20022;-71
2021/08/05 04:41:24;;;;;;;7.70;3.10;;;16.20;99.90;;;;;;5031409;28;20107;-72
2021/08/05 04:43:51;;;;;;;5.55;3.10;;;16.20;99.90;;;;;;5031591;28;20032;-72
2021/08/05 04:46:17;;;;;;;4.75;2.53;;;16.20;99.90;;;;;;5014066;28;20388;-72
2021/08/05 04:48:42;;;;;;;3.72;2.80;;;16.20;99.90;;;;;;5031471;28;20105;-73
2021/08/05 04:51:08;;;;;;;8.18;3.80;;;16.20;99.90;;;;;;5031544;28;20032;-71
2021/08/05 04:53:34;;;;;;;7.22;3.03;;;16.30;99.90;;;;;;5031555;28;20026;-71
2021/08/05 04:55:59;;;;;;;6.28;3.00;;;16.30;99.90;;;;;;5031727;28;20049;-72
2021/08/05 04:58:25;;;;;;;7.35;3.50;;;16.40;99.90;;;;;;5032424;28;20020;-72
2021/08/05 05:00:50;;;;;;;3.85;3.25;;;16.40;99.90;;;;;;5031860;28;20512;-71
2021/08/05 05:03:16;;;;;;;6.65;2.85;;;16.50;99.90;;;;;;5031268;28;20404;-73
2021/08/05 05:05:42;;;;;;;6.35;4.50;;;16.50;99.90;;;;;;5031333;28;20021;-72
2021/08/05 05:08:22;;;;;;;4.82;3.38;;;16.60;99.90;;;;;;5032232;28;20497;-70
2021/08/05 05:10:51;;;;;;;5.28;3.15;;;16.70;99.90;;;;;;5014059;28;20318;-72
2021/08/05 05:13:17;;;;;;;5.63;3.17;;;16.80;99.90;;;;;;5031837;28;20022;-73
2021/08/05 05:15:44;;;;;;;7.32;2.90;;;16.70;99.90;;;;;;5031569;28;20104;-72
2021/08/05 05:18:10;;;;;;;7.68;3.35;;;16.70;99.90;;;;;;5035274;28;20029;-72
2021/08/05 05:20:36;;;;;;;8.90;5.93;;;16.70;99.90;;;;;;5035447;28;20453;-72
2021/08/05 05:23:02;;;;;;;5.28;2.78;;;16.80;99.90;;;;;;5035379;28;20021;-72
2021/08/05 05:25:28;;;;;;;6.95;2.85;;;16.90;99.90;;;;;;5035344;28;20547;-72
2021/08/05 05:27:54;;;;;;;7.18;3.80;;;16.90;99.90;;;;;;5035529;28;20030;-72
2021/08/05 05:30:20;;;;;;;6.93;2.88;;;17.00;99.90;;;;;;5033437;28;20389;-72
2021/08/05 05:32:47;;;;;;;8.32;3.70;;;17.10;99.90;;;;;;5034795;28;20462;-72
2021/08/05 05:35:15;;;;;;;3.17;2.88;;;17.10;99.90;;;;;;5034664;28;20026;-73
2021/08/05 05:37:41;;;;;;;9.60;4.78;;;17.30;99.90;;;;;;5034513;28;20038;-73
2021/08/05 05:40:07;;;;;;;11.98;4.40;;;17.20;99.90;;;;;;5034551;28;20025;-71
2021/08/05 05:42:33;;;;;;;9.48;3.88;;;17.10;99.90;;;;;;5034355;28;20079;-72
2021/08/05 05:44:59;;;;;;;8.65;3.17;;;17.00;99.90;;;;;;5034009;28;20029;-73
2021/08/05 05:47:25;;;;;;;11.70;4.10;;;17.10;99.90;;;;;;5036504;28;20025;-72
2021/08/05 05:49:53;;;;;;;8.40;3.90;;;17.20;99.90;;;;;;5035557;28;20040;-72
2021/08/05 05:52:19;;;;;;;6.82;3.50;;;17.30;99.90;;;;;;5035221;28;20037;-72
2021/08/05 05:54:44;;;;;;;6.53;3.28;;;17.40;99.90;;;;;;5034948;28;20052;-71
2021/08/05 05:57:10;;;;;;;6.60;2.88;;;17.60;99.90;;;;;;5035789;28;20460;-74
2021/08/05 05:59:35;;;;;;;10.95;3.28;;;17.70;99.90;;;;;;5034620;28;20029;-71
2021/08/05 06:02:01;;;;;;;7.50;2.75;;;17.90;99.90;;;;;;5034900;28;20370;-73
2021/08/05 06:04:28;;;;;;;4.75;2.65;;;18.10;99.90;;;;;;5034407;28;20034;-72
2021/08/05 06:06:54;;;;;;;2.65;2.45;;;18.10;99.90;;;;;;5034848;28;20026;-72
2021/08/05 06:09:19;;;;;;;2.33;1.92;;;18.10;99.90;;;;;;5016985;28;20033;-72
2021/08/05 06:11:45;;;;;;;7.15;2.60;;;18.40;99.90;;;;;;5034957;28;20033;-70
2021/08/05 06:14:11;;;;;;;8.50;2.58;;;18.90;99.90;;;;;;5016491;28;20030;-72
2021/08/05 06:16:36;;;;;;;2.20;1.88;;;19.50;99.90;;;;;;5034541;28;20017;-74
2021/08/05 06:19:02;;;;;;;7.85;3.33;;;19.90;99.90;;;;;;5034071;28;20096;-71
2021/08/05 06:21:28;;;;;;;15.63;2.97;;;19.70;99.90;;;;;;5034110;28;20096;-72
2021/08/05 06:23:54;;;;;;;4.38;2.40;;;19.70;99.90;;;;;;5045242;28;20031;-71
2021/08/05 06:26:21;;;;;;;3.47;2.50;;;19.50;99.90;;;;;;5047742;28;20052;-72
2021/08/05 06:28:47;;;;;;;3.80;2.08;;;19.40;99.90;;;;;;5032170;28;20026;-73
2021/08/05 06:31:13;;;;;;;2.45;1.88;;;19.30;99.90;;;;;;5033812;28;20030;-73
2021/08/05 06:33:39;;;;;;;4.78;2.05;;;19.40;99.90;;;;;;5015518;28;20021;-73
2021/08/05 06:36:04;;;;;;;3.40;2.03;;;19.30;99.90;;;;;;5033405;28;20477;-72
2021/08/05 06:38:30;;;;;;;4.57;2.42;;;19.50;99.90;;;;;;5033477;28;20496;-71
2021/08/05 06:40:56;;;;;;;3.75;2.08;;;19.40;99.90;;;;;;5033126;28;20045;-72
2021/08/05 06:43:21;;;;;;;3.20;2.05;;;19.30;99.90;;;;;;5033584;28;20471;-73
2021/08/05 06:45:47;;;;;;;2.50;1.65;;;19.40;99.90;;;;;;5033118;28;20095;-73
2021/08/05 06:48:12;;;;;;;3.78;2.10;;;19.50;99.90;;;;;;5033945;28;20029;-71
2021/08/05 06:50:38;;;;;;;4.20;1.95;;;19.50;99.90;;;;;;5033098;28;20033;-72
2021/08/05 06:53:04;;;;;;;3.28;1.98;;;19.80;99.90;;;;;;5032993;28;20064;-72
2021/08/05 06:55:29;;;;;;;3.50;3.10;;;19.80;99.90;;;;;;5032980;28;20017;-72
2021/08/05 06:57:55;;;;;;;3.20;2.03;;;19.70;99.90;;;;;;5032991;28;20025;-72
2021/08/05 07:00:20;;;;;;;4.45;2.10;;;19.70;99.90;;;;;;5033147;28;20018;-71
2021/08/05 07:02:46;;;;;;;2.78;2.00;;;19.70;99.90;;;;;;5033434;28;20381;-72
2021/08/05 07:05:12;;;;;;;2.75;1.80;;;19.80;99.90;;;;;;5033056;28;20029;-72
2021/08/05 07:07:38;;;;;;;4.47;2.33;;;20.10;99.90;;;;;;5032443;28;20550;-73
2021/08/05 07:10:05;;;;;;;6.97;2.67;;;20.20;99.90;;;;;;5015050;28;20108;-73
2021/08/05 07:12:31;;;;;;;2.03;1.83;;;20.30;99.90;;;;;;5014386;28;20128;-71
2021/08/05 07:14:57;;;;;;;3.83;1.73;;;20.40;99.90;;;;;;5043356;28;20028;-72
2021/08/05 07:17:23;;;;;;;3.88;1.95;;;20.40;99.90;;;;;;5033269;28;20017;-72
2021/08/05 07:19:48;;;;;;;3.28;1.95;;;20.60;99.90;;;;;;5032849;28;20056;-72
2021/08/05 07:22:14;;;;;;;1.90;1.52;;;20.50;99.90;;;;;;5033003;28;20017;-73
2021/08/05 07:24:40;;;;;;;5.20;2.35;;;20.40;99.90;;;;;;5031509;28;20033;-74
2021/08/05 07:27:06;;;;;;;3.33;1.88;;;20.40;99.90;;;;;;5031190;28;20436;-73
2021/08/05 07:29:32;;;;;;;3.72;1.65;;;20.40;99.90;;;;;;5031975;28;20033;-73
2021/08/05 07:32:06;;;;;;;5.10;2.05;;;20.40;99.90;;;;;;5031189;28;20041;-72
2021/08/05 07:34:33;;;;;;;2.75;1.95;;;20.30;99.90;;;;;;5032768;28;20021;-74
2021/08/05 07:36:59;;;;;;;2.38;1.88;;;20.20;99.90;;;;;;5014795;28;20017;-74
2021/08/05 07:39:25;;;;;;;2.10;1.70;;;20.10;99.90;;;;;;5031755;28;20036;-74
2021/08/05 07:41:50;;;;;;;2.55;1.98;;;20.20;99.90;;;;;;5014106;28;20033;-74
2021/08/05 07:44:16;;;;;;;4.88;2.72;;;20.50;99.90;;;;;;5030401;28;20052;-73
2021/08/05 07:46:43;;;;;;;3.20;1.67;;;20.50;99.90;;;;;;5031047;28;20508;-73
2021/08/05 07:49:09;;;;;;;2.65;1.60;;;20.40;99.90;;;;;;5032154;28;20063;-74
2021/08/05 07:51:35;;;;;;;4.13;1.63;;;20.70;99.90;;;;;;5032008;28;20025;-74
2021/08/05 07:54:00;;;;;;;3.25;2.00;;;20.70;99.90;;;;;;5014260;28;20033;-74
2021/08/05 07:56:26;;;;;;;2.63;1.35;;;20.90;99.90;;;;;;5032201;28;20108;-74
2021/08/05 07:58:52;;;;;;;3.85;1.50;;;21.50;99.90;;;;;;5032335;28;20029;-74
2021/08/05 08:01:17;;;;;;;3.63;1.63;;;21.30;99.90;;;;;;5032737;28;20025;-73
2021/08/05 08:03:43;;;;;;;4.07;2.03;;;21.60;99.90;;;;;;5032499;28;20017;-74
2021/08/05 08:06:09;;;;;;;2.17;1.63;;;21.50;99.90;;;;;;5032799;28;20064;-74
2021/08/05 08:08:34;;;;;;;2.05;1.85;;;21.40;99.90;;;;;;5032323;28;20029;-72
2021/08/05 08:11:00;;;;;;;3.47;1.65;;;21.20;99.90;;;;;;5016853;28;20088;-74
2021/08/05 08:13:27;;;;;;;2.22;2.03;;;21.20;99.90;;;;;;5014341;28;20029;-75
2021/08/05 08:15:53;;;;;;;2.45;1.60;;;20.90;99.90;;;;;;5014081;28;20120;-74
2021/08/05 08:18:19;;;;;;;2.58;1.52;;;20.80;99.90;;;;;;5031930;28;20403;-72
2021/08/05 08:20:45;;;;;;;2.78;2.00;;;20.70;99.90;;;;;;5031936;28;20108;-73
2021/08/05 08:23:11;;;;;;;1.67;1.58;;;20.80;99.90;;;;;;5032178;28;20107;-73
2021/08/05 08:25:37;;;;;;;2.92;2.40;;;21.00;99.90;;;;;;5010879;28;20443;-73
2021/08/05 08:28:02;;;;;;;1.90;1.70;;;21.00;99.90;;;;;;5012728;28;20026;-74
2021/08/05 08:30:28;;;;;;;2.08;1.88;;;21.00;99.90;;;;;;5030149;28;20032;-74
2021/08/05 08:32:54;;;;;;;3.65;2.00;;;21.00;99.90;;;;;;5014920;28;20017;-74
2021/08/05 08:35:20;;;;;;;3.30;1.55;;;21.20;99.90;;;;;;5032385;28;20392;-75
2021/08/05 08:37:46;;;;;;;3.45;1.88;;;21.60;99.90;;;;;;5014957;28;20080;-74
2021/08/05 08:40:13;;;;;;;2.25;1.40;;;21.50;99.90;;;;;;5032487;28;20432;-74
2021/08/05 08:42:41;;;;;;;3.30;1.80;;;21.50;99.90;;;;;;5032608;28;20029;-74
2021/08/05 08:45:08;;;;;;;6.38;1.98;;;21.50;99.90;;;;;;5015678;28;20028;-75
2021/08/05 08:47:35;;;;;;;2.05;1.65;;;21.50;99.90;;;;;;5035216;28;20029;-77
2021/08/05 08:50:02;;;;;;;2.00;1.45;;;21.50;99.90;;;;;;5032738;28;20021;-74
2021/08/05 08:52:29;;;;;;;2.88;1.60;;;21.10;99.90;;;;;;5035937;28;20083;-74
2021/08/05 08:54:56;;;;;;;3.33;1.30;;;20.80;99.90;;;;;;5033711;28;20033;-74
2021/08/05 08:57:26;;;;;;;6.85;1.77;;;20.70;99.90;;;;;;5021122;28;20018;-73
2021/08/05 08:59:52;;;;;;;1.55;1.45;;;20.90;99.90;;;;;;5027017;28;20021;-74
2021/08/05 09:02:18;;;;;;;2.63;1.60;;;21.00;99.90;;;;;;5033615;28;20038;-73
2021/08/05 09:04:45;;;;;;;2.55;1.63;;;21.10;99.90;;;;;;5036414;28;20401;-73
2021/08/05 09:07:11;;;;;;;11.00;2.20;;;21.40;99.90;;;;;;5018596;28;20031;-73
2021/08/05 09:09:36;;;;;;;1.88;1.40;;;21.70;99.90;;;;;;5035788;28;20021;-73
2021/08/05 09:12:02;;;;;;;2.85;1.45;;;21.60;99.90;;;;;;5035214;28;20036;-74
2021/08/05 09:14:41;;;;;;;2.97;1.23;;;21.70;99.90;;;;;;5017373;28;20030;-73
2021/08/05 09:17:26;;;;;;;3.33;1.75;;;22.00;99.90;;;;;;5035114;28;20125;-73
2021/08/05 09:19:56;;;;;;;1.65;1.48;;;22.60;99.90;;;;;;5017229;28;20026;-74
2021/08/05 09:22:38;;;;;;;3.42;1.48;;;22.60;99.90;;;;;;5017604;28;20029;-74
2021/08/05 09:25:24;;;;;;;6.57;1.73;;;22.80;99.90;;;;;;5035133;28;20033;-74
2021/08/05 09:27:51;;;;;;;4.32;1.70;;;22.80;99.90;;;;;;5043914;28;20022;-73
2021/08/05 09:30:31;;;;;;;2.13;1.63;;;22.50;99.90;;;;;;5050025;28;20030;-74
2021/08/05 09:33:10;;;;;;;1.85;1.38;;;22.10;99.90;;;;;;5039380;28;20018;-74
2021/08/05 09:35:37;;;;;;;6.93;1.70;;;21.70;99.90;;;;;;5023477;28;20030;-73
2021/08/05 09:38:25;;;;;;;2.20;1.38;;;21.70;99.90;;;;;;5018206;28;20018;-73
2021/08/05 09:41:03;;;;;;;2.95;1.50;;;21.60;99.90;;;;;;5019085;28;20045;-74
2021/08/05 09:43:29;;;;;;;1.52;1.42;;;21.90;99.90;;;;;;5036577;28;20047;-74
2021/08/05 09:45:55;;;;;;;2.95;1.75;;;22.20;99.90;;;;;;5037106;28;20037;-73
2021/08/05 09:48:41;;;;;;;1.77;1.17;;;22.70;99.90;;;;;;5036553;28;20113;-74
2021/08/05 09:51:12;;;;;;;2.83;1.40;;;23.30;99.90;;;;;;5035544;28;20079;-74
2021/08/05 09:53:54;;;;;;;2.60;1.70;;;23.90;99.90;;;;;;5033702;28;20030;-74
2021/08/05 09:56:20;;;;;;;2.75;1.08;;;23.40;99.90;;;;;;5034213;28;20489;-74
2021/08/05 09:58:46;;;;;;;4.45;1.38;;;23.10;99.90;;;;;;5034251;28;20021;-73
2021/08/05 10:01:12;;;;;;;1.35;1.25;;;24.00;99.90;;;;;;5016393;28;20022;-74
2021/08/05 10:03:39;;;;;;;2.08;1.20;;;24.70;99.90;;;;;;5015776;28;20060;-74
2021/08/05 10:06:07;;;;;;;1.30;1.20;;;24.30;99.90;;;;;;5034195;28;20109;-73
2021/08/05 10:08:38;;;;;;;2.08;1.27;;;23.60;99.90;;;;;;5034186;28;20033;-73
2021/08/05 10:11:05;;;;;;;1.55;1.13;;;23.80;99.90;;;;;;5014464;28;20088;-74
2021/08/05 10:13:34;;;;;;;3.05;1.00;;;23.50;99.90;;;;;;5013851;28;20079;-73
2021/08/05 10:16:00;;;;;;;1.27;1.17;;;23.40;99.90;;;;;;5016618;28;20037;-72
2021/08/05 10:18:32;;;;;;;1.70;1.50;;;23.80;99.90;;;;;;5016150;28;20164;-72
2021/08/05 10:20:59;;;;;;;1.13;1.02;;;23.70;99.90;;;;;;5034440;28;20056;-72
2021/08/05 10:23:28;;;;;;;2.55;1.15;;;23.40;99.90;;;;;;5033519;28;20025;-72
2021/08/05 10:25:56;;;;;;;1.38;1.27;;;23.20;99.90;;;;;;5034816;28;20058;-73
2021/08/05 10:28:22;;;;;;;1.52;1.13;;;23.20;99.90;;;;;;5034405;28;20507;-73
2021/08/05 10:30:50;;;;;;;1.50;1.10;;;23.20;99.90;;;;;;5034469;28;20061;-72
2021/08/05 10:33:16;;;;;;;1.13;1.02;;;23.10;99.90;;;;;;5059771;22;20045;-73
2021/08/05 10:35:47;;;;;;;0.95;0.90;;;23.00;99.90;;;;;;5020834;28;20037;-76
2021/08/05 10:38:13;;;;;;;1.20;1.10;;;23.00;99.90;;;;;;4997888;28;20030;-74
2021/08/05 10:40:39;;;;;;;1.20;1.10;;;23.20;99.90;;;;;;5032196;28;20033;-75
2021/08/05 10:43:05;;;;;;;1.83;0.88;;;23.10;99.90;;;;;;5016677;28;20022;-76
2021/08/05 10:45:32;;;;;;;2.15;0.93;;;23.40;99.90;;;;;;5012209;28;20034;-76
2021/08/05 10:47:58;;;;;;;1.52;0.80;;;23.60;99.90;;;;;;5012338;28;20030;-75
2021/08/05 10:50:24;;;;;;;1.40;1.25;;;24.20;99.90;;;;;;5012482;28;20551;-75
2021/08/05 10:52:52;;;;;;;0.93;0.85;;;24.50;99.90;;;;;;5012738;28;20132;-75
2021/08/05 10:55:24;;;;;;;1.23;0.88;;;24.50;99.90;;;;;;5012817;28;20442;-76
2021/08/05 10:58:28;;;;;;;0.80;0.80;;;25.10;98.40;;;;;;5009547;28;20060;-73
2021/08/05 11:01:02;;;;;;;2.25;0.80;;;25.00;98.20;;;;;;4992678;28;20029;-72
2021/08/05 11:03:47;;;;;;;1.00;0.80;;;25.40;97.50;;;;;;5009000;28;20387;-73
2021/08/05 11:06:21;;;;;;;1.65;0.88;;;24.50;97.70;;;;;;5033772;28;20033;-73
2021/08/05 11:08:47;;;;;;;0.77;0.77;;;23.90;98.20;;;;;;5014673;28;20119;-72
2021/08/05 11:11:25;;;;;;;5.25;1.70;;;24.60;98.50;;;;;;5014191;28;20516;-73
2021/08/05 11:14:00;;;;;;;1.23;1.13;;;25.00;97.50;;;;;;4996565;28;20519;-74
2021/08/05 11:17:01;;;;;;;3.08;0.70;;;24.20;98.20;;;;;;5014678;28;20389;-73
2021/08/05 11:19:33;;;;;;;0.90;0.90;;;23.40;99.70;;;;;;5000695;28;20034;-73
2021/08/05 11:22:33;;;;;;;2.17;1.10;;;23.60;99.40;;;;;;4996427;28;20118;-70
2021/08/05 11:24:59;;;;;;;1.67;0.90;;;24.00;99.30;;;;;;5013572;28;20037;-71
2021/08/05 11:27:25;;;;;;;0.98;0.95;;;23.20;99.50;;;;;;5014435;28;20374;-72
2021/08/05 11:29:51;;;;;;;1.15;0.80;;;23.60;99.50;;;;;;5014647;28;20057;-71
2021/08/05 11:32:24;;;;;;;1.08;0.93;;;23.40;99.60;;;;;;5015416;28;20034;-71
2021/08/05 11:34:57;;;;;;;2.40;0.95;;;23.30;99.90;;;;;;5014635;28;20068;-72
2021/08/05 11:37:24;;;;;;;2.20;1.27;;;23.20;99.90;;;;;;4998145;28;20490;-72
2021/08/05 11:39:54;;;;;;;1.75;0.90;;;23.80;99.50;;;;;;4996863;28;20061;-72
2021/08/05 11:42:25;;;;;;;1.00;0.90;;;23.50;99.90;;;;;;5013529;28;20085;-71
2021/08/05 11:44:56;;;;;;;3.90;1.20;;;23.40;99.90;;;;;;5014047;28;20030;-72
2021/08/05 11:47:29;;;;;;;1.55;1.10;;;23.60;99.90;;;;;;5029957;28;20026;-71
2021/08/05 11:50:00;;;;;;;1.38;0.90;;;24.00;99.90;;;;;;5014304;28;20393;-71
2021/08/05 11:52:28;;;;;;;2.08;1.00;;;23.70;99.90;;;;;;5013875;28;20025;-72
2021/08/05 11:55:06;;;;;;;1.38;0.70;;;23.80;99.90;;;;;;5020428;28;20463;-72
2021/08/05 11:57:40;;;;;;;1.42;1.17;;;23.70;99.90;;;;;;5013529;28;20022;-71
2021/08/05 12:00:22;;;;;;;1.42;1.30;;;23.80;99.90;;;;;;4996350;28;20042;-71
2021/08/05 12:02:49;;;;;;;3.47;1.40;;;24.10;99.90;;;;;;5013003;28;20050;-72
2021/08/05 12:05:16;;;;;;;1.10;1.00;;;23.40;99.90;;;;;;4995911;28;20303;-70
2021/08/05 12:07:48;;;;;;;1.05;0.95;;;23.20;99.90;;;;;;5014715;28;20037;-72
2021/08/05 12:10:23;;;;;;;1.00;0.88;;;23.80;99.90;;;;;;4997377;28;20053;-72
2021/08/05 12:12:54;;;;;;;0.82;0.82;;;24.50;99.90;;;;;;5016429;28;20030;-72
2021/08/05 12:15:29;;;;;;;2.38;0.77;;;24.70;99.00;;;;;;4998587;28;20037;-73
2021/08/05 12:17:58;;;;;;;1.40;1.05;;;25.40;98.00;;;;;;4998245;28;20029;-73
2021/08/05 12:20:32;;;;;;;3.20;0.90;;;25.70;97.90;;;;;;5014412;28;20473;-71
2021/08/05 12:23:16;;;;;;;1.25;1.15;;;25.80;97.20;;;;;;5016763;28;20105;-71
2021/08/05 12:26:04;;;;;;;1.00;0.98;;;25.40;97.20;;;;;;5020314;28;20029;-71
2021/08/05 12:28:33;;;;;;;0.80;0.80;;;25.40;97.70;;;;;;5019210;28;20022;-72
2021/08/05 12:31:00;;;;;;;1.90;0.75;;;25.40;97.70;;;;;;5017739;28;20026;-72
2021/08/05 12:33:41;;;;;;;2.28;0.98;;;25.40;97.40;;;;;;5017419;28;20029;-72
2021/08/05 12:36:12;;;;;;;2.10;1.83;;;25.20;97.80;;;;;;5016366;28;20026;-72
2021/08/05 12:39:00;;;;;;;1.35;1.10;;;24.70;97.70;;;;;;5016930;28;20018;-71
2021/08/05 12:41:28;;;;;;;1.52;0.93;;;24.40;97.90;;;;;;5017984;28;20429;-72
2021/08/05 12:43:55;;;;;;;0.80;0.77;;;24.30;98.90;;;;;;5013043;28;20022;-72
2021/08/05 12:46:22;;;;;;;2.45;1.00;;;24.20;98.60;;;;;;5023507;28;20096;-71
2021/08/05 12:48:55;;;;;;;1.27;0.95;;;24.00;99.20;;;;;;5031972;28;20030;-71
2021/08/05 12:51:23;;;;;;;3.17;1.23;;;23.60;99.70;;;;;;5017262;28;20100;-71